Terminal Aerodrome Forecast
Issued by NWS Corpus Christi, TX

Home | Current Version | Previous Version | Text Only | Print | Product List | Glossary On
Versions: 1 2 3 4 5 6 7 8 9 10 11 12 13 14
694
FTUS44 KCRP 281128
TAFVCT
TAF
KVCT 281128Z 2812/2912 20006KT P6SM SCT025
     FM281900 16012G18KT P6SM FEW040
     FM290100 17008KT P6SM SKC
     FM291000 22003KT 6SM BR FEW020=

USA.gov is the U.S. government's official web portal to all federal, state and local government web resources and services.